Terminal Aerodrome Forecast
Issued by NWS

Home | Current Version | Previous Version | Text Only | Print | Product List | Glossary On
Versions: 1 2 3 4 5 6 7 8 9 10 11 12 13 14 15 16 17
000
FTUS44 KMAF 172100 AAB
TAFINK
TAF AMD
KINK 172105Z 1721/1818 26018G28KT P6SM SCT250
     FM180000 23007KT P6SM FEW200
     FM181400 29005KT P6SM BKN250
      TEMPO 1814/1817 OVC002=

USA.gov is the U.S. government's official web portal to all federal, state and local government web resources and services.